createdAt,value
2023-01-09T00:04:45.848Z,17.60
2023-01-09T00:09:53.325Z,21.03
2023-01-09T00:15:02.282Z,22.07
2023-01-09T00:20:15.535Z,20.20
2023-01-09T00:25:27.149Z,30.00
2023-01-09T00:36:13.646Z,22.43
2023-01-09T00:41:22.293Z,22.83
2023-01-09T00:46:33.895Z,14.50
2023-01-09T00:52:00.223Z,21.30
2023-01-09T00:57:17.182Z,12.90
2023-01-09T01:02:29.537Z,16.43
2023-01-09T01:07:42.009Z,18.50
2023-01-09T01:12:52.762Z,19.73
2023-01-09T01:18:09.207Z,17.30
2023-01-09T01:23:20.696Z,21.57
2023-01-09T01:28:52.919Z,26.73
2023-01-09T01:33:59.474Z,20.77
2023-01-09T01:39:08.690Z,20.37
2023-01-09T01:44:56.642Z,25.83
2023-01-09T01:50:07.450Z,21.70
2023-01-09T01:55:17.109Z,21.30
2023-01-09T02:00:29.105Z,17.73
2023-01-09T02:05:41.247Z,16.07
2023-01-09T02:10:50.977Z,18.00
2023-01-09T02:16:34.336Z,24.13
2023-01-09T02:22:17.675Z,24.40
2023-01-09T02:27:45.134Z,19.97
2023-01-09T02:33:09.570Z,21.77
2023-01-09T02:38:39.728Z,25.90
2023-01-09T02:44:18.082Z,16.20
2023-01-09T02:49:30.079Z,21.63
2023-01-09T02:55:09.745Z,17.57
2023-01-09T03:00:40.775Z,24.47
2023-01-09T03:06:21.356Z,24.70
2023-01-09T03:11:43.724Z,27.47
2023-01-09T03:16:56.561Z,20.53
2023-01-09T03:22:11.715Z,28.73
2023-01-09T03:27:28.895Z,19.40
2023-01-09T03:32:40.066Z,31.23
2023-01-09T03:37:56.425Z,18.07
2023-01-09T03:43:05.544Z,32.40
2023-01-09T03:48:13.137Z,26.23
2023-01-09T03:53:25.821Z,23.70
2023-01-09T03:58:42.101Z,18.30
2023-01-09T04:03:51.692Z,23.10
2023-01-09T04:08:59.193Z,33.30
2023-01-09T04:14:08.936Z,20.40
2023-01-09T04:19:22.102Z,33.17
2023-01-09T04:24:32.006Z,20.63
2023-01-09T04:29:39.166Z,22.87
2023-01-09T04:34:48.302Z,19.80
2023-01-09T04:39:56.644Z,26.47
2023-01-09T04:45:33.383Z,12.83
2023-01-09T04:50:43.212Z,17.47
2023-01-09T04:55:53.771Z,20.83
2023-01-09T05:01:08.488Z,28.47
2023-01-09T05:06:26.368Z,18.10
2023-01-09T05:11:36.312Z,19.20
2023-01-09T05:16:43.817Z,21.47
2023-01-09T05:21:49.748Z,21.07
2023-01-09T05:27:01.916Z,28.07
2023-01-09T05:32:17.603Z,32.27
2023-01-09T05:37:27.238Z,29.10
2023-01-09T05:42:33.211Z,20.00
2023-01-09T05:47:38.752Z,25.23
2023-01-09T05:52:44.131Z,27.93
2023-01-09T05:57:49.304Z,35.17
2023-01-09T06:02:55.019Z,33.70
2023-01-09T06:08:00.918Z,29.87
2023-01-09T06:13:06.479Z,17.77
2023-01-09T06:18:12.061Z,25.17
2023-01-09T06:23:17.796Z,23.10
2023-01-09T06:28:23.067Z,21.90
2023-01-09T06:33:28.353Z,21.63
2023-01-09T06:38:35.287Z,16.43
2023-01-09T06:43:40.583Z,23.93
2023-01-09T06:48:47.407Z,23.80
2023-01-09T06:53:52.700Z,20.67
2023-01-09T06:58:57.952Z,27.50
2023-01-09T07:09:33.656Z,27.13
2023-01-09T07:14:41.765Z,19.73
2023-01-09T07:19:49.084Z,19.83
2023-01-09T07:24:55.588Z,26.77
2023-01-09T07:30:02.880Z,41.77
2023-01-09T07:35:10.676Z,30.07
2023-01-09T07:40:18.962Z,31.37
2023-01-09T07:45:26.607Z,32.37
2023-01-09T07:50:33.417Z,49.43
2023-01-09T07:55:39.273Z,55.73
2023-01-09T08:00:47.806Z,45.77
2023-01-09T08:06:00.620Z,58.97
2023-01-09T08:11:07.748Z,32.93
2023-01-09T08:16:13.830Z,82.10
2023-01-09T08:21:19.445Z,106.57
2023-01-09T08:26:24.903Z,75.30
2023-01-09T08:31:31.926Z,37.60
2023-01-09T08:36:37.370Z,28.30
2023-01-09T08:42:01.645Z,39.90
2023-01-09T08:47:06.922Z,42.50
2023-01-09T08:52:14.047Z,46.80
2023-01-09T08:57:20.531Z,30.40
2023-01-09T09:02:25.791Z,25.20
2023-01-09T09:07:33.298Z,32.20
2023-01-09T09:12:41.125Z,30.73
2023-01-09T09:17:46.508Z,27.03
2023-01-09T09:22:51.822Z,40.00
2023-01-09T09:27:57.100Z,37.47
2023-01-09T09:33:04.942Z,39.83
2023-01-09T09:38:13.096Z,43.63
2023-01-09T09:43:45.364Z,29.90
2023-01-09T09:48:53.615Z,40.47
2023-01-09T09:54:14.262Z,40.63
2023-01-09T09:59:26.942Z,142.33
2023-01-09T10:04:34.830Z,188.80
2023-01-09T10:09:45.877Z,203.37
2023-01-09T10:14:52.394Z,125.33
2023-01-09T10:20:32.584Z,48.97
2023-01-09T10:25:50.164Z,39.40
2023-01-09T10:31:08.614Z,30.00
2023-01-09T10:36:17.697Z,175.30
2023-01-09T10:41:30.908Z,36.13
2023-01-09T10:46:42.189Z,60.80
2023-01-09T10:51:53.871Z,48.23
2023-01-09T10:57:09.273Z,58.10
2023-01-09T11:02:22.613Z,70.03
2023-01-09T11:07:31.110Z,35.53
2023-01-09T11:12:42.351Z,35.93
2023-01-09T11:17:58.796Z,50.93
2023-01-09T11:23:12.095Z,27.83
2023-01-09T11:28:27.498Z,40.17
2023-01-09T11:33:43.095Z,32.23
2023-01-09T11:38:56.613Z,37.27
2023-01-09T11:44:05.426Z,59.50
2023-01-09T11:49:22.988Z,42.93
2023-01-09T11:54:36.209Z,44.77
2023-01-09T11:59:50.785Z,52.90
2023-01-09T12:05:01.673Z,34.00
2023-01-09T12:10:26.582Z,43.17
2023-01-09T12:15:42.390Z,76.60
2023-01-09T12:21:27.729Z,47.17
2023-01-09T12:32:22.780Z,45.70
2023-01-09T12:37:49.535Z,37.77
2023-01-09T12:43:16.061Z,35.07
2023-01-09T12:48:56.351Z,30.10
2023-01-09T12:54:25.378Z,34.17
2023-01-09T12:59:42.415Z,43.17
2023-01-09T13:04:50.680Z,26.93
2023-01-09T13:10:03.351Z,40.90
2023-01-09T13:15:28.340Z,38.03
2023-01-09T13:20:47.810Z,37.47
2023-01-09T13:25:59.159Z,27.53
2023-01-09T13:31:20.958Z,35.60
2023-01-09T13:36:37.806Z,29.70
2023-01-09T13:42:08.792Z,40.70
2023-01-09T13:47:24.760Z,35.90
2023-01-09T13:52:40.760Z,30.13
2023-01-09T13:58:08.836Z,21.50
2023-01-09T14:03:30.104Z,32.10
2023-01-09T14:08:42.289Z,33.40
2023-01-09T14:13:57.265Z,29.03
2023-01-09T14:19:08.656Z,38.10
2023-01-09T14:24:28.944Z,37.60
2023-01-09T14:29:47.518Z,28.13
2023-01-09T14:34:59.562Z,31.97
2023-01-09T14:40:30.904Z,27.97
2023-01-09T14:45:40.237Z,34.97
2023-01-09T14:51:17.105Z,49.83
2023-01-09T14:56:28.793Z,40.53
2023-01-09T15:01:36.274Z,22.80
2023-01-09T15:06:49.485Z,40.93
2023-01-09T15:12:02.611Z,39.83
2023-01-09T15:17:33.825Z,32.77
2023-01-09T15:22:40.708Z,32.10
2023-01-09T15:28:32.584Z,32.60
2023-01-09T15:33:41.315Z,39.10
2023-01-09T15:38:49.655Z,37.63
2023-01-09T15:43:55.286Z,23.73
2023-01-09T15:49:03.547Z,29.90
2023-01-09T15:54:14.355Z,28.00
2023-01-09T15:59:29.953Z,35.07
2023-01-09T16:04:41.317Z,30.17
2023-01-09T16:09:54.434Z,52.20
2023-01-09T16:15:05.847Z,36.80
2023-01-09T16:20:19.983Z,41.43
2023-01-09T16:25:38.905Z,37.20
2023-01-09T16:30:56.927Z,46.33
2023-01-09T16:41:58.042Z,35.63
2023-01-09T16:47:11.932Z,26.50
2023-01-09T16:52:18.720Z,25.03
2023-01-09T16:57:24.189Z,28.97
2023-01-09T17:02:29.867Z,33.10
2023-01-09T17:07:39.172Z,35.70
2023-01-09T17:12:50.611Z,30.67
2023-01-09T17:18:01.968Z,33.50
2023-01-09T17:23:08.137Z,28.33
2023-01-09T17:28:35.865Z,34.23
2023-01-09T17:33:42.917Z,31.70
2023-01-09T17:38:49.839Z,33.40
2023-01-09T17:43:58.391Z,39.07
2023-01-09T17:49:05.071Z,30.67
2023-01-09T17:54:11.754Z,41.53
2023-01-09T17:59:18.413Z,41.30
2023-01-09T18:04:25.871Z,36.80
2023-01-09T18:09:35.059Z,30.07
2023-01-09T18:14:47.401Z,30.93
2023-01-09T18:19:52.932Z,35.97
2023-01-09T18:24:58.751Z,29.20
2023-01-09T18:30:06.901Z,32.17
2023-01-09T18:35:12.925Z,34.60
2023-01-09T18:40:20.344Z,29.17
2023-01-09T18:45:32.846Z,33.87
2023-01-09T18:50:38.637Z,34.03
2023-01-09T18:55:43.891Z,34.87
2023-01-09T19:00:50.890Z,30.53
2023-01-09T19:06:01.077Z,30.13
2023-01-09T19:11:08.604Z,32.57
2023-01-09T19:16:16.502Z,26.10
2023-01-09T19:21:27.031Z,34.00
2023-01-09T19:26:39.337Z,41.17
2023-01-09T19:31:49.627Z,38.10
2023-01-09T19:36:57.219Z,40.53
2023-01-09T19:42:04.266Z,30.27
2023-01-09T19:47:15.204Z,33.13
2023-01-09T19:52:21.395Z,37.80
2023-01-09T19:57:26.682Z,45.70
2023-01-09T20:02:32.443Z,25.80
2023-01-09T20:07:43.979Z,36.03
2023-01-09T20:12:56.735Z,36.17
2023-01-09T20:18:14.497Z,36.53
2023-01-09T20:23:33.407Z,18.87
2023-01-09T20:28:38.936Z,39.10
2023-01-09T20:33:45.336Z,26.67
2023-01-09T20:38:51.893Z,28.83
2023-01-09T20:44:00.067Z,35.93
2023-01-09T20:49:07.720Z,35.43
2023-01-09T20:54:13.724Z,23.80
2023-01-09T20:59:23.947Z,34.33
2023-01-09T21:04:30.824Z,36.53
2023-01-09T21:09:36.017Z,36.97
2023-01-09T21:14:41.570Z,27.70
2023-01-09T21:19:47.206Z,33.70
2023-01-09T21:24:52.829Z,39.60
2023-01-09T21:29:58.145Z,33.07
2023-01-09T21:35:05.573Z,26.77
2023-01-09T21:40:16.528Z,30.73
2023-01-09T21:45:39.787Z,32.50
2023-01-09T21:50:46.071Z,30.23
2023-01-09T21:55:52.033Z,24.80
2023-01-09T22:01:01.062Z,24.00
2023-01-09T22:06:07.300Z,20.47
2023-01-09T22:11:14.764Z,25.93
2023-01-09T22:16:20.626Z,22.17
2023-01-09T22:21:28.240Z,23.70
2023-01-09T22:26:35.729Z,29.40
2023-01-09T22:31:43.422Z,29.97
2023-01-09T22:36:48.958Z,23.63
2023-01-09T22:41:55.411Z,27.13
2023-01-09T22:47:00.697Z,35.43
2023-01-09T22:52:06.101Z,18.80
2023-01-09T22:57:11.387Z,26.63
2023-01-09T23:02:16.757Z,21.97
2023-01-09T23:07:22.816Z,24.70
2023-01-09T23:12:28.173Z,25.23
2023-01-09T23:17:33.373Z,24.63
2023-01-09T23:22:38.641Z,28.30
2023-01-09T23:27:44.160Z,22.00
2023-01-09T23:32:49.474Z,21.50
2023-01-09T23:37:54.748Z,18.80
2023-01-09T23:43:09.570Z,15.40
2023-01-09T23:48:16.619Z,13.30
2023-01-09T23:53:23.354Z,20.73
2023-01-09T23:58:28.999Z,16.73
